Time;durP1;ratioP1;P1;durP2;ratioP2;P2;SDS_P1;SDS_P2;PMS_P1;PMS_P2;Temp;Humidity;BMP_temperature;BMP_pressure;BME280_temperature;BME280_humidity;BME280_pressure;Samples;Min_cycle;Max_cycle;Signal;HPM_P1;HPM_P2
2022/04/24 00:01:31;;;;;;;;;;;;;;;13.90;100.00;96148.19;5062042;28;19924;-66
2022/04/24 00:03:57;;;;;;;;;;;;;;;13.92;100.00;96145.19;5061702;28;19985;-68
2022/04/24 00:06:24;;;;;;;;;;;;;;;13.93;100.00;96141.38;5058806;28;19921;-66
2022/04/24 00:08:51;;;;;;;;;;;;;;;13.86;100.00;96141.94;5058722;28;19949;-66
2022/04/24 00:11:18;;;;;;;;;;;;;;;13.79;100.00;96130.94;5061919;28;19924;-65
2022/04/24 00:13:44;;;;;;;;;;;;;;;13.83;100.00;96125.69;5062060;28;19925;-65
2022/04/24 00:16:11;;;;;;;;;;;;;;;13.84;100.00;96125.34;5060759;28;19932;-65
2022/04/24 00:18:38;;;;;;;;;;;;;;;13.82;100.00;96114.19;5062068;28;20015;-66
2022/04/24 00:21:04;;;;;;;;;;;;;;;13.75;100.00;96110.44;5060536;28;19925;-67
2022/04/24 00:23:31;;;;;;;;;;;;;;;13.73;100.00;96110.78;5058580;28;19949;-66
2022/04/24 00:25:59;;;;;;;;;;;;;;;13.71;100.00;96106.84;5058710;28;19921;-66
2022/04/24 00:28:25;;;;;;;;;;;;;;;13.66;100.00;96117.75;5061881;28;19925;-65
2022/04/24 00:30:52;;;;;;;;;;;;;;;13.69;100.00;96112.53;5061650;28;19921;-66
2022/04/24 00:33:18;;;;;;;;;;;;;;;13.65;100.00;96106.22;5058577;28;19931;-65
2022/04/24 00:35:45;;;;;;;;;;;;;;;13.67;100.00;96098.66;5058418;28;20006;-66
2022/04/24 00:38:11;;;;;;;;;;;;;;;13.67;100.00;96095.97;5060435;28;19933;-66
2022/04/24 00:40:37;;;;;;;;;;;;;;;13.64;100.00;96091.28;5060674;28;19921;-66
2022/04/24 00:43:05;;;;;;;;;;;;;;;13.62;100.00;96092.69;5053065;28;19984;-66
2022/04/24 00:45:31;;;;;;;;;;;;;;;13.65;100.00;96092.06;5061660;28;20019;-66
2022/04/24 00:47:57;;;;;;;;;;;;;;;13.60;100.00;96089.56;5060771;28;19984;-65
2022/04/24 00:50:24;;;;;;;;;;;;;;;13.63;100.00;96081.66;5057915;28;19953;-66
2022/04/24 00:52:50;;;;;;;;;;;;;;;13.59;100.00;96083.41;5057789;28;19936;-65
2022/04/24 00:55:18;;;;;;;;;;;;;;;13.55;100.00;96071.78;5060984;28;20364;-66
2022/04/24 00:57:44;;;;;;;;;;;;;;;13.60;100.00;96060.84;5061252;28;20016;-66
2022/04/24 01:00:12;;;;;;;;;;;;;;;13.60;100.00;96066.19;5059002;28;19988;-66
2022/04/24 01:02:38;;;;;;;;;;;;;;;13.65;100.00;96065.25;5057438;28;19925;-66
2022/04/24 01:05:06;;;;;;;;;;;;;;;13.66;100.00;96059.53;5058226;28;19988;-65
2022/04/24 01:07:33;;;;;;;;;;;;;;;13.66;100.00;96056.06;5061203;27;19925;-66
2022/04/24 01:10:00;;;;;;;;;;;;;;;13.59;100.00;96059.25;5060331;28;19929;-66
2022/04/24 01:12:26;;;;;;;;;;;;;;;13.64;100.00;96045.69;5060640;28;19968;-65
2022/04/24 01:14:52;;;;;;;;;;;;;;;13.58;100.00;96038.16;5060901;28;19931;-66
2022/04/24 01:17:20;;;;;;;;;;;;;;;13.55;100.00;96044.16;5057549;28;19953;-66
2022/04/24 01:19:47;;;;;;;;;;;;;;;13.17;100.00;96036.22;5057650;28;19925;-66
2022/04/24 01:22:16;;;;;;;;;;;;;;;12.67;100.00;96042.25;5060037;28;19926;-66
2022/04/24 01:24:42;;;;;;;;;;;;;;;12.27;100.00;96039.06;5060867;28;19921;-66
2022/04/24 01:27:08;;;;;;;;;;;;;;;11.96;100.00;96035.03;5058683;28;19924;-66
2022/04/24 01:29:35;;;;;;;;;;;;;;;11.86;100.00;96023.56;5057233;28;19925;-67
2022/04/24 01:32:01;;;;;;;;;;;;;;;11.56;100.00;96024.50;5058107;28;19929;-66
2022/04/24 01:34:27;;;;;;;;;;;;;;;11.44;100.00;96021.66;5060628;28;19925;-65
2022/04/24 01:36:54;;;;;;;;;;;;;;;11.24;100.00;96020.38;5060700;28;19995;-66
2022/04/24 01:39:21;;;;;;;;;;;;;;;11.53;100.00;96019.78;5048939;28;19929;-65
2022/04/24 01:41:48;;;;;;;;;;;;;;;11.53;100.00;96024.34;5057157;28;19980;-65
2022/04/24 01:44:14;;;;;;;;;;;;;;;11.59;100.00;96042.56;5059805;28;19929;-65
2022/04/24 01:46:40;;;;;;;;;;;;;;;12.08;100.00;96029.81;5060450;28;19985;-66
2022/04/24 01:49:07;;;;;;;;;;;;;;;12.46;100.00;96033.34;5058620;28;19928;-65
2022/04/24 01:51:33;;;;;;;;;;;;;;;12.73;100.00;96030.25;5056981;28;19929;-66
2022/04/24 01:53:59;;;;;;;;;;;;;;;12.87;100.00;96030.81;5057323;28;19925;-68
2022/04/24 01:56:27;;;;;;;;;;;;;;;12.97;100.00;96019.72;5060540;28;19924;-65
2022/04/24 01:58:54;;;;;;;;;;;;;;;12.69;100.00;96021.28;5060219;28;19988;-65
2022/04/24 02:01:20;;;;;;;;;;;;;;;12.71;100.00;96015.63;5048540;28;19935;-66
2022/04/24 02:03:46;;;;;;;;;;;;;;;12.66;100.00;96021.13;5056644;28;19977;-65
2022/04/24 02:06:13;;;;;;;;;;;;;;;12.57;100.00;96015.03;5059068;28;19964;-66
2022/04/24 02:08:39;;;;;;;;;;;;;;;12.36;100.00;96009.59;5060230;27;19942;-65
2022/04/24 02:11:06;;;;;;;;;;;;;;;12.05;100.00;96004.50;5058054;28;20352;-65
2022/04/24 02:13:34;;;;;;;;;;;;;;;11.62;100.00;96001.84;5056674;28;19921;-66
2022/04/24 02:16:00;;;;;;;;;;;;;;;11.57;100.00;96004.69;5057313;28;19988;-65
2022/04/24 02:18:27;;;;;;;;;;;;;;;11.51;100.00;95995.25;5060355;28;20471;-65
2022/04/24 02:20:53;;;;;;;;;;;;;;;11.97;100.00;96002.63;5060023;28;20007;-65
2022/04/24 02:23:19;;;;;;;;;;;;;;;11.81;100.00;95998.88;5056704;28;19980;-65
2022/04/24 02:25:46;;;;;;;;;;;;;;;11.75;100.00;95994.78;5056477;28;19931;-65
2022/04/24 02:28:12;;;;;;;;;;;;;;;11.66;100.00;95984.09;5057813;28;19985;-65
2022/04/24 02:30:39;;;;;;;;;;;;;;;11.59;100.00;95983.75;5059979;28;19931;-65
2022/04/24 02:33:06;;;;;;;;;;;;;;;11.76;100.00;95975.75;5058369;28;19929;-66
2022/04/24 02:35:32;;;;;;;;;;;;;;;11.64;100.00;95980.91;5056485;28;19989;-66
2022/04/24 02:37:59;;;;;;;;;;;;;;;11.84;100.00;95974.19;5056778;28;19925;-65
2022/04/24 02:40:27;;;;;;;;;;;;;;;11.63;100.00;95963.34;5059825;28;19925;-65
2022/04/24 02:42:54;;;;;;;;;;;;;;;11.64;100.00;95967.56;5059778;28;19925;-65
2022/04/24 02:45:21;;;;;;;;;;;;;;;11.36;100.00;95967.09;5048381;28;19931;-65
2022/04/24 02:47:49;;;;;;;;;;;;;;;11.27;100.00;95969.00;5056355;28;19925;-66
2022/04/24 02:50:15;;;;;;;;;;;;;;;11.24;100.00;95966.94;5059024;28;19975;-66
2022/04/24 02:52:45;;;;;;;;;;;;;;;11.33;100.00;95972.28;5059538;28;19932;-65
2022/04/24 02:55:12;;;;;;;;;;;;;;;11.64;100.00;95972.09;5057121;28;20008;-65
2022/04/24 02:57:38;;;;;;;;;;;;;;;11.61;100.00;95973.53;5056241;28;19925;-66
2022/04/24 03:00:07;;;;;;;;;;;;;;;11.83;100.00;95981.41;5057334;28;19932;-65
2022/04/24 03:02:38;;;;;;;;;;;;;;;11.88;100.00;95989.25;5059203;28;19932;-66
2022/04/24 03:05:06;;;;;;;;;;;;;;;11.94;100.00;95981.09;5058045;28;19931;-65
2022/04/24 03:07:33;;;;;;;;;;;;;;;11.98;100.00;95990.03;5056041;28;19948;-66
2022/04/24 03:09:59;;;;;;;;;;;;;;;12.20;100.00;95981.78;5056492;28;20012;-65
2022/04/24 03:12:25;;;;;;;;;;;;;;;12.17;100.00;95985.09;5059191;28;19925;-65
2022/04/24 03:14:52;;;;;;;;;;;;;;;11.80;100.00;95975.91;5059341;28;19926;-66
2022/04/24 03:17:18;;;;;;;;;;;;;;;11.54;100.00;95975.13;5056130;28;19929;-66
2022/04/24 03:19:44;;;;;;;;;;;;;;;11.45;100.00;95969.75;5055802;28;19988;-66
2022/04/24 03:22:12;;;;;;;;;;;;;;;11.35;100.00;95960.22;5057902;28;19933;-66
2022/04/24 03:24:39;;;;;;;;;;;;;;;11.31;100.00;95956.59;5059285;28;19975;-65
2022/04/24 03:27:05;;;;;;;;;;;;;;;11.18;100.00;95960.19;5057125;28;19924;-66
2022/04/24 03:29:32;;;;;;;;;;;;;;;11.20;100.00;95955.31;5055452;28;19952;-66
2022/04/24 03:31:58;;;;;;;;;;;;;;;11.29;100.00;95944.63;5055937;28;19925;-66
2022/04/24 03:34:24;;;;;;;;;;;;;;;11.29;100.00;95939.28;5059204;28;19952;-66
2022/04/24 03:36:51;;;;;;;;;;;;;;;11.43;100.00;95939.13;5059216;28;19935;-65
2022/04/24 03:39:20;;;;;;;;;;;;;;;11.66;100.00;95943.97;5055215;28;19925;-65
2022/04/24 03:41:46;;;;;;;;;;;;;;;12.00;100.00;95958.41;5055623;28;19929;-66
2022/04/24 03:44:12;;;;;;;;;;;;;;;11.99;100.00;95954.94;5055373;28;19925;-65
2022/04/24 03:46:39;;;;;;;;;;;;;;;11.73;100.00;95952.31;5055614;28;20614;-66
2022/04/24 03:49:05;;;;;;;;;;;;;;;11.96;100.00;95968.16;5056750;28;19931;-65
2022/04/24 03:51:31;;;;;;;;;;;;;;;12.21;100.00;95959.28;5058888;28;19928;-66
2022/04/24 03:53:58;;;;;;;;;;;;;;;11.97;100.00;95948.34;5058419;28;19932;-66
2022/04/24 03:56:25;;;;;;;;;;;;;;;11.74;100.00;95953.91;5055668;28;20004;-66
2022/04/24 03:58:52;;;;;;;;;;;;;;;11.71;100.00;95945.72;5055371;28;19931;-66
2022/04/24 04:01:18;;;;;;;;;;;;;;;11.48;100.00;95934.38;5058322;28;19985;-66
2022/04/24 04:03:44;;;;;;;;;;;;;;;11.17;100.00;95945.25;5058740;28;19927;-66
2022/04/24 04:06:11;;;;;;;;;;;;;;;11.07;100.00;95932.22;5056420;28;19939;-66
2022/04/24 04:08:37;;;;;;;;;;;;;;;11.20;100.00;95930.50;5055089;28;19928;-66
2022/04/24 04:11:03;;;;;;;;;;;;;;;11.23;100.00;95916.50;5056344;28;19973;-66
2022/04/24 04:13:31;;;;;;;;;;;;;;;11.06;100.00;95908.47;5060737;28;19951;-66
2022/04/24 04:15:57;;;;;;;;;;;;;;;10.90;100.00;95905.50;5055492;28;19989;-65
2022/04/24 04:18:23;;;;;;;;;;;;;;;10.92;100.00;95916.66;5058692;28;19971;-65
2022/04/24 04:20:50;;;;;;;;;;;;;;;11.52;100.00;95937.22;5058737;28;19924;-65
2022/04/24 04:23:16;;;;;;;;;;;;;;;11.67;100.00;95952.75;5055664;28;19981;-65
2022/04/24 04:25:43;;;;;;;;;;;;;;;12.04;100.00;95962.78;5055098;28;19996;-65
2022/04/24 04:28:09;;;;;;;;;;;;;;;12.01;100.00;95963.41;5057106;28;19993;-65
2022/04/24 04:30:37;;;;;;;;;;;;;;;12.06;100.00;95962.47;5058614;28;19932;-66
2022/04/24 04:33:03;;;;;;;;;;;;;;;11.99;100.00;95949.59;5057116;28;19925;-65
2022/04/24 04:35:29;;;;;;;;;;;;;;;12.19;100.00;95948.13;5055100;28;20490;-65
2022/04/24 04:37:56;;;;;;;;;;;;;;;12.41;100.00;95958.56;5054927;28;19931;-65
2022/04/24 04:40:22;;;;;;;;;;;;;;;12.55;100.00;95956.47;5060053;28;19993;-65
2022/04/24 04:42:49;;;;;;;;;;;;;;;12.50;100.00;95958.53;5061680;28;19929;-66
2022/04/24 04:45:15;;;;;;;;;;;;;;;12.35;100.00;95959.84;5058785;28;19929;-66
2022/04/24 04:47:43;;;;;;;;;;;;;;;12.00;100.00;95964.53;5058215;28;20498;-66
2022/04/24 04:50:10;;;;;;;;;;;;;;;12.10;100.00;95974.13;5059946;28;19988;-66
2022/04/24 04:52:36;;;;;;;;;;;;;;;12.25;100.00;95979.75;5061485;28;19936;-65
2022/04/24 04:55:03;;;;;;;;;;;;;;;12.40;100.00;95984.56;5060259;28;20023;-65
2022/04/24 04:57:29;;;;;;;;;;;;;;;12.53;100.00;95977.44;5058124;28;19929;-66
2022/04/24 04:59:56;;;;;;;;;;;;;;;12.44;100.00;95976.66;5058103;28;19925;-65
2022/04/24 05:02:23;;;;;;;;;;;;;;;12.31;100.00;95977.69;5061142;28;19984;-66
2022/04/24 05:04:50;;;;;;;;;;;;;;;12.04;100.00;95973.47;5061393;28;19936;-66
2022/04/24 05:07:16;;;;;;;;;;;;;;;11.70;100.00;95974.34;5058304;28;19988;-65
2022/04/24 05:09:43;;;;;;;;;;;;;;;11.77;100.00;96014.75;5057849;28;19989;-65
2022/04/24 05:12:10;;;;;;;;;;;;;;;12.28;100.00;96024.59;5059474;28;19932;-65
2022/04/24 05:14:37;;;;;;;;;;;;;;;12.42;100.00;96019.03;5061036;28;19927;-65
2022/04/24 05:17:03;;;;;;;;;;;;;;;12.28;100.00;96002.41;5059922;28;19932;-66
2022/04/24 05:19:29;;;;;;;;;;;;;;;12.34;100.00;96011.81;5057574;28;19975;-65
2022/04/24 05:21:57;;;;;;;;;;;;;;;12.40;100.00;96002.50;5057532;28;19981;-65
2022/04/24 05:24:23;;;;;;;;;;;;;;;12.16;100.00;96002.28;5060890;28;19992;-65
2022/04/24 05:26:50;;;;;;;;;;;;;;;12.08;100.00;96032.50;5061063;28;19997;-65
2022/04/24 05:29:17;;;;;;;;;;;;;;;12.38;100.00;96024.22;5058025;28;19925;-65
2022/04/24 05:31:43;;;;;;;;;;;;;;;12.53;100.00;96020.28;5057398;28;19974;-66
2022/04/24 05:34:09;;;;;;;;;;;;;;;12.43;100.00;96016.06;5059171;28;19921;-66
2022/04/24 05:36:36;;;;;;;;;;;;;;;12.60;100.00;96020.53;5060721;28;19929;-66
2022/04/24 05:39:03;;;;;;;;;;;;;;;12.71;100.00;96019.09;5059674;28;19971;-66
2022/04/24 05:41:30;;;;;;;;;;;;;;;12.79;100.00;96028.97;5057181;28;19925;-65
2022/04/24 05:43:56;;;;;;;;;;;;;;;12.88;100.00;96035.06;5057169;28;19925;-65
2022/04/24 05:46:22;;;;;;;;;;;;;;;12.94;100.00;96038.34;5060869;28;19960;-64
2022/04/24 05:48:49;;;;;;;;;;;;;;;12.86;100.00;96039.97;5060642;28;19968;-65
2022/04/24 05:51:15;;;;;;;;;;;;;;;12.91;100.00;96049.69;5057216;28;19929;-65
2022/04/24 05:53:41;;;;;;;;;;;;;;;12.95;100.00;96056.78;5057293;28;19937;-66
2022/04/24 05:56:09;;;;;;;;;;;;;;;13.02;100.00;96064.31;5058820;28;19948;-65
2022/04/24 05:58:35;;;;;;;;;;;;;;;13.08;100.00;96064.91;5060591;28;19931;-66
2022/04/24 06:01:01;;;;;;;;;;;;;;;13.07;100.00;96069.50;5059449;28;19929;-65
2022/04/24 06:03:28;;;;;;;;;;;;;;;13.10;100.00;96068.88;5056803;28;20008;-65
2022/04/24 06:05:54;;;;;;;;;;;;;;;13.05;100.00;96084.31;5056954;28;19925;-65
2022/04/24 06:08:20;;;;;;;;;;;;;;;13.12;100.00;96092.69;5048777;28;19989;-65
2022/04/24 06:10:47;;;;;;;;;;;;;;;13.11;100.00;96094.56;5056819;28;19927;-66
2022/04/24 06:13:14;;;;;;;;;;;;;;;13.17;100.00;96098.63;5063507;28;19932;-65
2022/04/24 06:15:41;;;;;;;;;;;;;;;13.16;100.00;96096.28;5056931;28;19925;-65
2022/04/24 06:18:07;;;;;;;;;;;;;;;13.28;100.00;96104.41;5058471;28;20007;-64
2022/04/24 06:20:34;;;;;;;;;;;;;;;13.28;100.00;96101.72;5060146;28;19985;-65
2022/04/24 06:23:00;;;;;;;;;;;;;;;13.24;100.00;96108.84;5059391;28;19925;-65
2022/04/24 06:25:28;;;;;;;;;;;;;;;13.25;100.00;96121.13;5055668;28;19946;-65
2022/04/24 06:27:54;;;;;;;;;;;;;;;13.19;100.00;96130.47;5056709;28;19925;-65
2022/04/24 06:30:23;;;;;;;;;;;;;;;13.26;100.00;96122.72;5048338;28;19925;-65
2022/04/24 06:32:50;;;;;;;;;;;;;;;13.35;100.00;96131.50;5056484;28;19925;-65
2022/04/24 06:35:17;;;;;;;;;;;;;;;13.33;100.00;96133.72;5059247;28;19925;-66
2022/04/24 06:37:44;;;;;;;;;;;;;;;13.41;100.00;96143.59;5059805;28;19943;-65
2022/04/24 06:40:11;;;;;;;;;;;;;;;13.42;100.00;96145.19;5057706;28;19925;-65
2022/04/24 06:42:47;;;;;;;;;;;;;;;13.33;100.00;96147.91;5055085;28;19936;-64
2022/04/24 06:45:14;;;;;;;;;;;;;;;13.31;100.00;96136.72;5058998;28;19924;-66
2022/04/24 06:47:42;;;;;;;;;;;;;;;13.35;100.00;96136.84;5059936;28;19924;-65
2022/04/24 06:50:09;;;;;;;;;;;;;;;13.40;100.00;96134.78;5057911;28;19921;-66
2022/04/24 06:52:35;;;;;;;;;;;;;;;13.42;100.00;96137.16;5056189;28;19925;-65
2022/04/24 06:55:02;;;;;;;;;;;;;;;13.49;100.00;96143.56;5056886;28;19925;-66
2022/04/24 06:57:28;;;;;;;;;;;;;;;13.52;100.00;96150.19;5059665;28;19967;-65
2022/04/24 06:59:54;;;;;;;;;;;;;;;13.52;100.00;96147.50;5059482;28;19920;-65
2022/04/24 07:02:20;;;;;;;;;;;;;;;13.45;100.00;96136.50;5046769;28;19925;-66
2022/04/24 07:04:48;;;;;;;;;;;;;;;13.53;100.00;96143.69;5056010;28;20008;-65
2022/04/24 07:07:14;;;;;;;;;;;;;;;13.39;100.00;96143.16;5058706;28;19933;-66
2022/04/24 07:09:41;;;;;;;;;;;;;;;13.34;100.00;96146.00;5059519;28;19929;-64
2022/04/24 07:12:08;;;;;;;;;;;;;;;13.27;100.00;96148.41;5057891;28;19925;-66
2022/04/24 07:14:34;;;;;;;;;;;;;;;13.29;100.00;96119.38;5059485;28;19935;-66
2022/04/24 07:17:00;;;;;;;;;;;;;;;13.16;100.00;96117.72;5058500;28;20020;-65
2022/04/24 07:19:27;;;;;;;;;;;;;;;12.92;100.00;96121.72;5055898;28;19990;-65
2022/04/24 07:21:54;;;;;;;;;;;;;;;12.91;100.00;96117.47;5055830;28;19935;-65
2022/04/24 07:24:20;;;;;;;;;;;;;;;13.06;100.00;96126.84;5047642;28;19992;-66
2022/04/24 07:26:47;;;;;;;;;;;;;;;13.14;100.00;96119.94;5055859;28;19943;-65
2022/04/24 07:29:13;;;;;;;;;;;;;;;13.06;100.00;96118.06;5057136;28;19985;-65
2022/04/24 07:31:39;;;;;;;;;;;;;;;13.08;100.00;96123.88;5059343;28;20673;-65
2022/04/24 07:34:06;;;;;;;;;;;;;;;12.98;100.00;96144.56;5057625;28;19925;-64
2022/04/24 07:36:32;;;;;;;;;;;;;;;12.82;100.00;96154.22;5055731;28;19926;-66
2022/04/24 07:39:00;;;;;;;;;;;;;;;12.98;100.00;96149.91;5056071;28;19921;-65
2022/04/24 07:41:26;;;;;;;;;;;;;;;13.24;100.00;96157.09;5059097;28;19929;-66
2022/04/24 07:43:53;;;;;;;;;;;;;;;13.19;100.00;96150.00;5056420;28;19925;-66
2022/04/24 07:46:19;;;;;;;;;;;;;;;13.19;100.00;96149.22;5055735;28;19984;-67
2022/04/24 07:48:45;;;;;;;;;;;;;;;13.00;100.00;96149.59;5055756;28;19949;-65
2022/04/24 07:51:12;;;;;;;;;;;;;;;12.78;100.00;96155.94;5057798;28;19925;-66
2022/04/24 07:53:41;;;;;;;;;;;;;;;12.71;100.00;96155.66;5058853;28;20555;-65
2022/04/24 07:56:09;;;;;;;;;;;;;;;12.68;100.00;96163.56;5057074;28;19924;-66
2022/04/24 07:58:35;;;;;;;;;;;;;;;12.71;100.00;96176.31;5055442;28;19926;-66
2022/04/24 08:01:01;;;;;;;;;;;;;;;12.72;100.00;96184.00;5056111;28;19993;-66
2022/04/24 08:03:27;;;;;;;;;;;;;;;12.84;100.00;96183.38;5058728;28;19986;-66
2022/04/24 08:05:54;;;;;;;;;;;;;;;12.82;100.00;96189.03;5058619;28;19925;-65
2022/04/24 08:08:21;;;;;;;;;;;;;;;12.90;100.00;96192.81;5055215;28;19925;-66
2022/04/24 08:10:48;;;;;;;;;;;;;;;12.93;100.00;96192.97;5055403;28;19988;-65
2022/04/24 08:13:16;;;;;;;;;;;;;;;13.06;100.00;96199.22;5061895;28;20068;-66
2022/04/24 08:15:43;;;;;;;;;;;;;;;13.31;100.00;96195.69;5058719;28;19936;-67
2022/04/24 08:18:10;;;;;;;;;;;;;;;13.40;100.00;96209.09;5060461;28;19993;-65
2022/04/24 08:20:37;;;;;;;;;;;;;;;13.23;100.00;96209.13;5062240;28;19928;-65
2022/04/24 08:23:04;;;;;;;;;;;;;;;13.31;100.00;96198.38;5060689;28;19931;-66
2022/04/24 08:25:34;;;;;;;;;;;;;;;13.31;100.00;96194.91;5058793;28;19925;-66
2022/04/24 08:28:02;;;;;;;;;;;;;;;13.34;100.00;96200.41;5059052;28;19950;-65
2022/04/24 08:30:30;;;;;;;;;;;;;;;13.41;100.00;96210.63;5061928;28;19925;-65
2022/04/24 08:32:56;;;;;;;;;;;;;;;13.32;100.00;96213.34;5061471;28;19980;-64
2022/04/24 08:35:22;;;;;;;;;;;;;;;13.31;100.00;96219.03;5058490;28;19925;-65
2022/04/24 08:37:49;;;;;;;;;;;;;;;13.41;100.00;96229.41;5058360;28;20012;-65
2022/04/24 08:40:16;;;;;;;;;;;;;;;13.55;100.00;96232.69;5060992;28;19968;-65
2022/04/24 08:42:42;;;;;;;;;;;;;;;13.64;100.00;96233.41;5061619;27;19929;-65
2022/04/24 08:45:10;;;;;;;;;;;;;;;13.80;100.00;96245.16;5059857;28;20020;-66
2022/04/24 08:47:38;;;;;;;;;;;;;;;13.60;100.00;96248.56;5058303;28;19929;-65
2022/04/24 08:50:05;;;;;;;;;;;;;;;13.49;100.00;96242.00;5059229;28;19992;-65
2022/04/24 08:52:31;;;;;;;;;;;;;;;13.58;100.00;96234.72;5061674;28;19964;-66
2022/04/24 08:54:58;;;;;;;;;;;;;;;13.66;100.00;96244.59;5061247;28;19924;-65
2022/04/24 08:57:26;;;;;;;;;;;;;;;13.82;100.00;96242.97;5058104;28;19956;-66
2022/04/24 08:59:53;;;;;;;;;;;;;;;13.83;100.00;96241.81;5058181;28;19932;-66
2022/04/24 09:02:19;;;;;;;;;;;;;;;13.96;100.00;96240.81;5060824;28;19959;-66
2022/04/24 09:04:47;;;;;;;;;;;;;;;14.05;100.00;96246.13;5061470;28;19925;-66
2022/04/24 09:07:17;;;;;;;;;;;;;;;14.27;100.00;96245.81;5058824;28;19931;-66
2022/04/24 09:09:44;;;;;;;;;;;;;;;14.35;100.00;96241.56;5057903;28;19932;-65
2022/04/24 09:12:11;;;;;;;;;;;;;;;14.40;100.00;96252.09;5059619;28;19925;-66
2022/04/24 09:14:38;;;;;;;;;;;;;;;14.33;100.00;96241.06;5061308;28;19925;-66
2022/04/24 09:17:05;;;;;;;;;;;;;;;14.63;100.00;96247.97;5059991;28;20019;-66
2022/04/24 09:19:31;;;;;;;;;;;;;;;14.79;100.00;96243.53;5057804;28;19925;-66
2022/04/24 09:22:03;;;;;;;;;;;;;;;14.73;100.00;96249.47;5056785;28;19925;-66
2022/04/24 09:24:39;;;;;;;;;;;;;;;14.56;100.00;96251.19;5061169;28;19987;-66
2022/04/24 09:27:05;;;;;;;;;;;;;;;14.60;100.00;96245.94;5058924;28;19929;-66
2022/04/24 09:29:31;;;;;;;;;;;;;;;14.75;100.00;96241.84;5057699;28;19988;-66
2022/04/24 09:31:58;;;;;;;;;;;;;;;14.68;100.00;96242.38;5057837;28;19932;-65
2022/04/24 09:34:30;;;;;;;;;;;;;;;14.32;100.00;96239.50;5061110;28;19960;-66
2022/04/24 09:37:00;;;;;;;;;;;;;;;14.40;100.00;96260.16;5060845;28;19933;-66
2022/04/24 09:39:28;;;;;;;;;;;;;;;14.40;100.00;96265.50;5057452;28;19949;-65
2022/04/24 09:42:01;;;;;;;;;;;;;;;14.42;100.00;96282.88;5057474;28;19988;-66
2022/04/24 09:44:35;;;;;;;;;;;;;;;14.60;100.00;96272.81;5050065;28;19932;-66
2022/04/24 09:47:02;;;;;;;;;;;;;;;14.79;100.00;96291.16;5057980;28;19921;-66
2022/04/24 09:49:28;;;;;;;;;;;;;;;14.81;100.00;96297.75;5060714;28;19984;-66
2022/04/24 09:51:55;;;;;;;;;;;;;;;15.04;100.00;96307.03;5060776;28;19935;-66
2022/04/24 09:54:22;;;;;;;;;;;;;;;15.17;100.00;96307.09;5049145;28;19926;-66
2022/04/24 09:56:52;;;;;;;;;;;;;;;15.08;100.00;96305.28;5057244;28;19928;-65
2022/04/24 09:59:20;;;;;;;;;;;;;;;15.05;100.00;96305.94;5060170;28;19981;-66
2022/04/24 10:01:46;;;;;;;;;;;;;;;15.03;100.00;96316.22;5060164;28;19942;-66
2022/04/24 10:04:13;;;;;;;;;;;;;;;15.14;100.00;96330.84;5057871;28;19992;-66
2022/04/24 10:06:40;;;;;;;;;;;;;;;14.93;100.00;96321.22;5056959;28;19921;-65
2022/04/24 10:09:08;;;;;;;;;;;;;;;14.98;100.00;96327.16;5058193;28;20603;-66
2022/04/24 10:11:35;;;;;;;;;;;;;;;15.17;100.00;96337.44;5060437;28;19929;-66
2022/04/24 10:14:05;;;;;;;;;;;;;;;15.29;100.00;96323.28;5058499;28;19925;-65
2022/04/24 10:16:56;;;;;;;;;;;;;;;14.96;100.00;96326.72;5060304;28;19961;-65
2022/04/24 10:19:32;;;;;;;;;;;;;;;14.95;100.00;96322.47;5063632;28;19951;-66
2022/04/24 10:22:04;;;;;;;;;;;;;;;15.05;100.00;96316.69;5057137;28;19926;-66
2022/04/24 10:24:38;;;;;;;;;;;;;;;14.99;100.00;96312.63;5060313;28;19925;-66
2022/04/24 10:27:05;;;;;;;;;;;;;;;14.88;100.00;96316.84;5058695;28;19980;-65
2022/04/24 10:29:33;;;;;;;;;;;;;;;14.87;100.00;96317.16;5056623;28;19927;-66
2022/04/24 10:31:59;;;;;;;;;;;;;;;15.07;100.00;96292.94;5056800;28;19921;-65
2022/04/24 10:34:26;;;;;;;;;;;;;;;14.83;100.00;96292.84;5059873;28;20450;-66
2022/04/24 10:36:54;;;;;;;;;;;;;;;15.19;100.00;96283.34;5059647;28;19925;-65
2022/04/24 10:39:22;;;;;;;;;;;;;;;15.23;100.00;96278.88;5056316;28;19935;-65
2022/04/24 10:41:53;;;;;;;;;;;;;;;15.30;100.00;96276.44;5054047;28;19949;-67
2022/04/24 10:44:20;;;;;;;;;;;;;;;15.38;100.00;96278.25;5055326;28;19929;-67
2022/04/24 10:46:48;;;;;;;;;;;;;;;15.21;100.00;96279.22;5050904;28;20012;-64
2022/04/24 10:49:15;;;;;;;;;;;;;;;15.31;99.35;96280.69;5058847;28;20012;-66
2022/04/24 10:51:42;;;;;;;;;;;;;;;15.20;100.00;96285.69;5058760;28;19984;-66
2022/04/24 10:54:09;;;;;;;;;;;;;;;15.04;100.00;96274.78;5057943;28;20016;-66
2022/04/24 10:56:36;;;;;;;;;;;;;;;15.09;100.00;96274.59;5056402;28;19981;-66
2022/04/24 10:59:07;;;;;;;;;;;;;;;15.19;100.00;96277.97;5056996;28;19988;-66
2022/04/24 11:01:33;;;;;;;;;;;;;;;15.29;100.00;96272.19;5059443;28;19925;-66
2022/04/24 11:04:06;;;;;;;;;;;;;;;15.17;100.00;96264.06;5058754;28;19992;-66
2022/04/24 11:06:32;;;;;;;;;;;;;;;15.33;99.67;96267.69;5056220;28;19985;-65
2022/04/24 11:09:06;;;;;;;;;;;;;;;15.48;97.84;96269.78;5054541;28;22297;-65
2022/04/24 11:11:33;;;;;;;;;;;;;;;15.72;94.04;96264.41;5058250;28;19925;-66
2022/04/24 11:14:00;;;;;;;;;;;;;;;15.59;96.52;96270.94;5057549;28;19931;-65
2022/04/24 11:16:26;;;;;;;;;;;;;;;15.74;96.08;96262.19;5059210;28;19976;-67
2022/04/24 11:18:53;;;;;;;;;;;;;;;15.71;94.91;96265.56;5059276;28;19931;-66
2022/04/24 11:21:22;;;;;;;;;;;;;;;15.77;94.38;96256.13;5056158;28;19925;-66
2022/04/24 11:23:49;;;;;;;;;;;;;;;15.66;94.08;96263.06;5055786;28;19921;-66
2022/04/24 11:26:15;;;;;;;;;;;;;;;15.97;87.33;96254.44;5058367;28;19932;-66
2022/04/24 11:28:42;;;;;;;;;;;;;;;15.80;92.38;96260.84;5059380;28;19956;-65
2022/04/24 11:31:13;;;;;;;;;;;;;;;15.86;92.24;96253.34;5057378;28;19925;-66
2022/04/24 11:33:50;;;;;;;;;;;;;;;15.84;91.80;96253.69;5055585;28;19925;-66
2022/04/24 11:36:16;;;;;;;;;;;;;;;15.90;91.78;96257.72;5058186;28;19939;-66
2022/04/24 11:38:46;;;;;;;;;;;;;;;15.71;91.77;96249.41;5059278;28;19996;-67
2022/04/24 11:41:14;;;;;;;;;;;;;;;15.58;93.01;96259.38;5056437;28;19951;-65
2022/04/24 11:43:41;;;;;;;;;;;;;;;15.58;93.31;96267.44;5055562;28;19925;-67
2022/04/24 11:51:35;;;;;;;;;;;;;;;15.92;90.36;96279.69;5053112;28;19929;-66
2022/04/24 11:54:03;;;;;;;;;;;;;;;15.62;92.69;96271.06;5059723;28;19988;-68
2022/04/24 11:56:32;;;;;;;;;;;;;;;15.69;91.09;96288.53;5062464;28;19955;-67
2022/04/24 11:59:10;;;;;;;;;;;;;;;15.56;91.70;96276.97;5061728;28;19935;-66
2022/04/24 12:01:37;;;;;;;;;;;;;;;15.68;92.06;96290.44;5058290;28;20026;-65
2022/04/24 12:04:03;;;;;;;;;;;;;;;15.71;92.65;96295.16;5059508;28;20330;-66
2022/04/24 12:06:31;;;;;;;;;;;;;;;15.84;91.57;96304.81;5062425;27;19992;-66
2022/04/24 12:08:58;;;;;;;;;;;;;;;15.99;90.92;96314.13;5061920;28;20012;-66
2022/04/24 12:11:26;;;;;;;;;;;;;;;15.94;88.52;96300.88;5058967;28;20236;-65
2022/04/24 12:14:02;;;;;;;;;;;;;;;15.87;88.37;96319.50;5058827;28;19984;-65
2022/04/24 12:16:29;;;;;;;;;;;;;;;15.79;89.29;96305.03;5051718;28;19921;-66
2022/04/24 12:18:56;;;;;;;;;;;;;;;15.79;89.85;96317.69;5058678;28;19964;-66
2022/04/24 12:21:22;;;;;;;;;;;;;;;15.84;91.29;96317.50;5050635;28;19986;-66
2022/04/24 12:23:49;;;;;;;;;;;;;;;15.89;89.07;96320.75;5058639;28;19926;-66
2022/04/24 12:26:15;;;;;;;;;;;;;;;15.79;89.60;96310.41;5061172;28;19986;-67
2022/04/24 12:28:43;;;;;;;;;;;;;;;16.05;88.69;96318.19;5062197;28;19964;-67
2022/04/24 12:31:19;;;;;;;;;;;;;;;15.94;89.75;96308.94;5060070;28;19981;-66
2022/04/24 12:33:46;;;;;;;;;;;;;;;16.28;85.51;96308.50;5058417;28;20001;-66
2022/04/24 12:36:14;;;;;;;;;;;;;;;16.30;82.68;96308.19;5060568;28;19929;-66
2022/04/24 12:38:40;;;;;;;;;;;;;;;16.02;88.46;96311.56;5061901;28;19924;-66
2022/04/24 12:41:10;;;;;;;;;;;;;;;16.08;86.66;96310.22;5060289;28;19921;-66
2022/04/24 12:43:36;;;;;;;;;;;;;;;16.07;85.88;96314.03;5055474;28;19929;-66